Time;durP1;ratioP1;P1;durP2;ratioP2;P2;SDS_P1;SDS_P2;PMS_P1;PMS_P2;Temp;Humidity;BMP_temperature;BMP_pressure;BME280_temperature;BME280_humidity;BME280_pressure;Samples;Min_cycle;Max_cycle;Signal;HPM_P1;HPM_P2
2023/07/16 00:00:44;;;;;;;0.10;0.10;;;;;;;19.93;nan;100229.19;5042057;28;20722;-84
2023/07/16 00:03:09;;;;;;;0.10;0.10;;;;;;;19.90;nan;100237.69;5025080;28;20318;-84
2023/07/16 00:05:37;;;;;;;0.10;0.10;;;;;;;19.90;nan;100231.47;5024553;28;20046;-86
2023/07/16 00:08:02;;;;;;;0.00;0.00;;;;;;;19.80;nan;100229.28;5050554;28;20120;-85
2023/07/16 00:10:27;;;;;;;;;;;;;;;19.78;nan;100230.56;5021785;28;20702;-85
2023/07/16 00:12:52;;;;;;;;;;;;;;;19.72;nan;100224.22;5045158;28;19924;-84
2023/07/16 00:15:18;;;;;;;;;;;;;;;19.68;nan;100217.66;5031478;28;20268;-84
2023/07/16 00:17:43;;;;;;;0.10;0.10;;;;;;;19.69;nan;100256.84;5029977;28;19917;-84
2023/07/16 00:20:10;;;;;;;0.10;0.10;;;;;;;19.68;nan;100288.19;5039224;28;20041;-85
2023/07/16 00:22:38;;;;;;;0.10;0.10;;;;;;;19.65;nan;100315.44;5027385;28;20136;-85
2023/07/16 00:25:06;;;;;;;0.10;0.10;;;;;;;19.71;nan;100311.94;5033059;28;20597;-83
2023/07/16 00:27:31;;;;;;;0.10;0.10;;;;;;;19.67;nan;100313.38;5032805;28;20104;-84
2023/07/16 00:29:58;;;;;;;0.00;0.00;;;;;;;19.66;nan;100314.41;5030541;28;20129;-85
2023/07/16 00:32:24;;;;;;;0.10;0.10;;;;;;;19.69;nan;100302.47;5041876;28;20037;-83
2023/07/16 00:34:49;;;;;;;0.10;0.10;;;;;;;19.68;nan;100290.88;5021413;28;20121;-84
2023/07/16 00:37:14;;;;;;;0.10;0.10;;;;;;;19.66;nan;100270.66;5043262;28;20048;-83
2023/07/16 00:39:40;;;;;;;0.10;0.10;;;;;;;19.83;nan;100270.97;5026086;28;20418;-86
2023/07/16 00:42:05;;;;;;;0.10;0.10;;;;;;;19.81;nan;100265.84;5046077;28;20037;-83
2023/07/16 00:44:30;;;;;;;0.10;0.10;;;;;;;19.82;nan;100283.56;5033053;28;20271;-83
2023/07/16 00:46:56;;;;;;;0.00;0.00;;;;;;;19.75;nan;100276.63;5052723;28;20037;-83
2023/07/16 00:49:23;;;;;;;0.00;0.00;;;;;;;19.76;nan;100270.19;5048485;28;20039;-83
2023/07/16 00:51:50;;;;;;;0.00;0.00;;;;;;;19.86;nan;100249.91;5045160;28;20401;-85
2023/07/16 00:54:15;;;;;;;;;;;;;;;19.81;nan;100217.53;5048976;28;20120;-83
2023/07/16 00:56:41;;;;;;;0.10;0.10;;;;;;;19.79;nan;100226.84;5051579;28;19999;-84
2023/07/16 00:59:06;;;;;;;0.00;0.00;;;;;;;19.76;nan;100260.31;5051945;28;20119;-84
2023/07/16 01:01:31;;;;;;;0.10;0.10;;;;;;;19.77;nan;100264.63;5045706;28;20053;-84
2023/07/16 01:03:56;;;;;;;0.10;0.10;;;;;;;19.73;nan;100274.13;5025306;28;20505;-86
2023/07/16 01:06:29;;;;;;;0.00;0.00;;;;;;;19.69;nan;100308.66;5046775;28;20342;-85
2023/07/16 01:09:01;;;;;;;0.00;0.00;;;;;;;19.68;nan;100316.91;5048877;28;20041;-85
2023/07/16 01:11:26;;;;;;;;;;;;;;;19.66;nan;100332.34;5027062;28;20029;-85
2023/07/16 01:13:52;;;;;;;0.00;0.00;;;;;;;19.68;nan;100312.34;5036058;28;19919;-84
2023/07/16 01:16:22;;;;;;;0.00;0.00;;;;;;;19.64;nan;100313.81;5031050;28;20030;-82
2023/07/16 01:18:48;;;;;;;0.10;0.10;;;;;;;19.67;nan;100320.59;5052898;28;20032;-84
2023/07/16 01:21:16;;;;;;;0.10;0.10;;;;;;;19.65;nan;100315.44;5036188;28;20044;-81
2023/07/16 01:24:09;;;;;;;0.10;0.10;;;;;;;19.64;nan;100329.91;5036727;28;20026;-82
2023/07/16 01:27:04;;;;;;;0.10;0.10;;;;;;;19.59;nan;100347.66;5048903;28;20048;-82
2023/07/16 01:29:54;;;;;;;0.10;0.10;;;;;;;19.58;nan;100351.41;5043620;28;20033;-82
2023/07/16 01:32:21;;;;;;;0.10;0.10;;;;;;;19.50;nan;100358.66;5049358;28;20371;-81
2023/07/16 01:34:48;;;;;;;0.10;0.10;;;;;;;19.46;nan;100345.88;5039364;28;20284;-82
2023/07/16 01:37:13;;;;;;;0.10;0.10;;;;;;;19.43;nan;100341.78;5051672;28;20071;-82
2023/07/16 01:39:39;;;;;;;0.10;0.10;;;;;;;19.45;nan;100338.88;5050464;28;20417;-82
2023/07/16 01:42:05;;;;;;;0.10;0.10;;;;;;;19.41;nan;100335.00;5040458;28;20037;-82
2023/07/16 01:44:30;;;;;;;;;;;;;;;19.38;nan;100330.03;5046073;28;20511;-82
2023/07/16 01:47:15;;;;;;;0.10;0.10;;;;;;;19.39;nan;100337.06;5028662;28;20167;-82
2023/07/16 01:49:42;;;;;;;0.00;0.00;;;;;;;19.55;nan;100327.69;5039815;28;20399;-82
2023/07/16 01:52:09;;;;;;;0.10;0.10;;;;;;;19.55;nan;100333.06;5047527;28;20036;-82
2023/07/16 01:54:36;;;;;;;0.10;0.10;;;;;;;19.48;nan;100338.47;5032481;28;20037;-81
2023/07/16 01:57:01;;;;;;;0.10;0.10;;;;;;;19.43;nan;100338.28;5053175;28;20044;-81
2023/07/16 01:59:27;;;;;;;0.10;0.10;;;;;;;19.38;nan;100344.28;5039174;28;20041;-81
2023/07/16 02:01:52;;;;;;;0.00;0.00;;;;;;;19.36;nan;100358.94;5051464;28;20038;-82
2023/07/16 02:04:18;;;;;;;0.10;0.10;;;;;;;19.31;nan;100362.25;5049300;28;20040;-82
2023/07/16 02:06:44;;;;;;;0.10;0.10;;;;;;;19.26;nan;100359.41;5053388;28;20040;-82
2023/07/16 02:09:10;;;;;;;0.00;0.00;;;;;;;19.21;nan;100360.03;5023503;28;20080;-83
2023/07/16 02:11:36;;;;;;;0.10;0.10;;;;;;;19.15;nan;100371.59;5030534;28;20507;-83
2023/07/16 02:14:01;;;;;;;0.10;0.10;;;;;;;19.05;nan;100376.59;5031867;28;20045;-83
2023/07/16 02:16:27;;;;;;;0.10;0.10;;;;;;;18.99;nan;100372.88;5037978;28;20029;-82
2023/07/16 02:18:53;;;;;;;0.00;0.00;;;;;;;18.92;nan;100387.34;5052299;28;20029;-82
2023/07/16 02:21:18;;;;;;;0.10;0.10;;;;;;;18.88;nan;100389.63;5032341;28;20045;-82
2023/07/16 02:23:44;;;;;;;0.00;0.00;;;;;;;18.83;nan;100392.09;5037722;28;20037;-81
2023/07/16 02:26:09;;;;;;;0.10;0.10;;;;;;;18.81;nan;100391.50;5037016;28;20051;-82
2023/07/16 02:28:35;;;;;;;0.10;0.10;;;;;;;18.85;nan;100393.53;5039427;28;20521;-82
2023/07/16 02:31:02;;;;;;;;;;;;;;;18.72;nan;100403.44;5042947;28;20128;-83
2023/07/16 02:33:27;;;;;;;0.10;0.10;;;;;;;18.70;nan;100406.31;5044440;28;19924;-83
2023/07/16 02:35:53;;;;;;;0.10;0.10;;;;;;;18.65;nan;100396.22;5032471;28;20395;-82
2023/07/16 02:38:19;;;;;;;0.10;0.10;;;;;;;18.70;nan;100392.09;5050376;28;20105;-83
2023/07/16 02:40:46;;;;;;;0.10;0.10;;;;;;;18.70;nan;100395.59;5044849;28;20037;-81
2023/07/16 02:43:12;;;;;;;0.10;0.10;;;;;;;18.66;nan;100399.69;5040489;28;20041;-82
2023/07/16 02:45:38;;;;;;;0.10;0.10;;;;;;;18.65;nan;100403.44;5043671;28;20037;-82
2023/07/16 02:48:05;;;;;;;0.10;0.10;;;;;;;18.69;nan;100399.31;5051404;28;20113;-81
2023/07/16 02:50:35;;;;;;;0.10;0.10;;;;;;;18.66;nan;100405.06;5031800;28;20048;-82
2023/07/16 02:53:00;;;;;;;0.10;0.10;;;;;;;18.64;nan;100413.31;5027173;28;20040;-81
2023/07/16 02:55:26;;;;;;;0.10;0.10;;;;;;;18.64;nan;100415.19;5037912;28;20033;-80
2023/07/16 02:57:54;;;;;;;0.10;0.10;;;;;;;18.56;nan;100418.88;5046896;28;20140;-81
2023/07/16 03:00:20;;;;;;;0.10;0.10;;;;;;;18.56;nan;100413.53;5041420;28;20110;-81
2023/07/16 03:02:45;;;;;;;0.10;0.10;;;;;;;18.44;nan;100415.19;5060497;28;20045;-82
2023/07/16 03:05:11;;;;;;;0.10;0.10;;;;;;;18.33;nan;100413.09;5037321;28;20642;-82
2023/07/16 03:07:37;;;;;;;0.10;0.10;;;;;;;18.28;nan;100415.56;5025897;28;20056;-81
2023/07/16 03:10:03;;;;;;;0.10;0.10;;;;;;;18.22;nan;100404.66;5035897;28;20075;-82
2023/07/16 03:12:28;;;;;;;0.10;0.10;;;;;;;18.15;nan;100419.91;5029418;28;20064;-82
2023/07/16 03:14:54;;;;;;;0.10;0.10;;;;;;;18.09;nan;100415.38;5061991;28;20056;-82
2023/07/16 03:17:20;;;;;;;;;;;;;;;17.99;nan;100417.59;5056902;28;20512;-82
2023/07/16 03:19:49;;;;;;;0.10;0.10;;;;;;;17.95;nan;100427.09;5021431;28;19925;-81
2023/07/16 03:22:14;;;;;;;;;;;;;;;17.90;nan;100443.75;5025882;28;20039;-82
2023/07/16 03:24:40;;;;;;;;;;;;;;;17.87;nan;100456.69;5030525;28;19960;-81
2023/07/16 03:27:08;;;;;;;;;;;;;;;17.88;nan;100451.13;5053649;28;20279;-82
2023/07/16 03:29:34;;;;;;;;;;;;;;;17.87;nan;100451.31;5052816;28;19952;-82
2023/07/16 03:32:02;;;;;;;;;;;;;;;17.82;nan;100454.59;5019206;28;19920;-82
2023/07/16 03:34:27;;;;;;;;;;;;;;;17.76;nan;100458.06;5037113;28;20348;-82
2023/07/16 03:36:53;;;;;;;0.10;0.10;;;;;;;17.72;nan;100452.28;5043302;28;19921;-81
2023/07/16 03:39:18;;;;;;;0.10;0.10;;;;;;;17.85;nan;100450.69;5032949;28;20419;-81
2023/07/16 03:41:44;;;;;;;0.03;0.03;;;;;;;17.98;nan;100448.88;5048272;28;20405;-83
2023/07/16 03:44:13;;;;;;;0.10;0.10;;;;;;;18.10;nan;100457.16;5050005;28;20413;-82
2023/07/16 03:46:38;;;;;;;0.03;0.03;;;;;;;17.92;nan;100448.88;5042964;28;20048;-82
2023/07/16 03:49:07;;;;;;;0.10;0.10;;;;;;;17.82;nan;100444.72;5033632;28;20037;-83
2023/07/16 03:51:32;;;;;;;0.03;0.03;;;;;;;17.71;nan;100456.00;5049281;28;20036;-83
2023/07/16 03:54:01;;;;;;;0.10;0.10;;;;;;;17.67;nan;100461.94;5059679;28;20039;-82
2023/07/16 03:56:26;;;;;;;0.10;0.10;;;;;;;17.63;nan;100470.34;5055239;28;20055;-83
2023/07/16 03:58:55;;;;;;;0.10;0.10;;;;;;;17.57;nan;100478.34;5035646;28;20034;-82
2023/07/16 04:01:21;;;;;;;0.10;0.10;;;;;;;17.55;nan;100475.88;5029383;28;20033;-83
2023/07/16 04:03:46;;;;;;;;;;;;;;;17.50;nan;100480.16;5048832;23;20117;-82
2023/07/16 04:06:12;;;;;;;;;;;;;;;17.46;nan;100490.41;5023871;28;19928;-83
2023/07/16 04:08:40;;;;;;;;;;;;;;;17.40;nan;100489.38;5042814;28;19913;-82
2023/07/16 04:11:09;;;;;;;0.10;0.10;;;;;;;17.36;nan;100490.78;5023065;28;19913;-82
2023/07/16 04:13:35;;;;;;;0.10;0.10;;;;;;;17.36;nan;100497.97;5048726;28;20091;-82
2023/07/16 04:16:00;;;;;;;0.10;0.10;;;;;;;17.40;nan;100494.72;5028023;28;20040;-82
2023/07/16 04:18:26;;;;;;;0.10;0.10;;;;;;;17.41;nan;100506.22;5045294;28;20097;-82
2023/07/16 04:20:52;;;;;;;0.10;0.10;;;;;;;17.43;nan;100509.53;5041965;28;20041;-83
2023/07/16 04:23:23;;;;;;;0.10;0.10;;;;;;;17.39;nan;100508.28;5042297;28;20041;-82
2023/07/16 04:25:53;;;;;;;0.10;0.10;;;;;;;17.40;nan;100513.44;5038191;28;20086;-82
2023/07/16 04:28:19;;;;;;;0.10;0.10;;;;;;;17.47;nan;100517.97;5045799;28;20047;-82
2023/07/16 04:30:44;;;;;;;0.10;0.10;;;;;;;17.45;nan;100517.34;5041244;28;20526;-82
2023/07/16 04:33:10;;;;;;;0.10;0.10;;;;;;;17.48;nan;100525.81;5040068;28;20071;-83
2023/07/16 04:35:35;;;;;;;0.10;0.10;;;;;;;17.49;nan;100522.09;5026570;28;20109;-82
2023/07/16 04:38:01;;;;;;;0.10;0.10;;;;;;;17.58;nan;100520.09;5040494;28;20041;-82
2023/07/16 04:40:29;;;;;;;0.10;0.10;;;;;;;17.61;nan;100520.53;5038116;28;20047;-82
2023/07/16 04:42:54;;;;;;;0.10;0.10;;;;;;;17.67;nan;100513.56;5030515;28;20130;-83
2023/07/16 04:45:20;;;;;;;0.10;0.10;;;;;;;17.73;nan;100517.28;5030454;28;20069;-82
2023/07/16 04:47:45;;;;;;;0.10;0.10;;;;;;;17.77;nan;100523.91;5030851;28;20430;-83
2023/07/16 04:50:11;;;;;;;0.10;0.10;;;;;;;17.75;nan;100537.44;5029073;28;20034;-82
2023/07/16 04:52:40;;;;;;;0.10;0.10;;;;;;;17.75;nan;100545.47;5024280;28;20110;-83
2023/07/16 04:55:06;;;;;;;0.10;0.10;;;;;;;17.75;nan;100536.63;5029565;28;20036;-82
2023/07/16 04:57:33;;;;;;;0.10;0.10;;;;;;;17.69;nan;100546.28;5045576;28;20113;-82
2023/07/16 04:59:59;;;;;;;0.10;0.10;;;;;;;17.64;nan;100546.06;5054127;28;20025;-82
2023/07/16 05:02:25;;;;;;;0.10;0.10;;;;;;;17.65;nan;100555.72;5043777;28;20037;-82
2023/07/16 05:04:50;;;;;;;0.10;0.10;;;;;;;17.66;nan;100562.72;5028956;28;20052;-82
2023/07/16 05:07:16;;;;;;;0.10;0.10;;;;;;;17.64;nan;100556.75;5029239;28;20099;-82
2023/07/16 05:09:42;;;;;;;;;;;;;;;17.61;nan;100559.81;5043168;28;20048;-81
2023/07/16 05:12:07;;;;;;;;;;;;;;;17.61;nan;100565.16;5033096;28;19916;-82
2023/07/16 05:14:43;;;;;;;0.10;0.10;;;;;;;17.68;nan;100562.53;5034657;28;19912;-82
2023/07/16 05:17:24;;;;;;;0.10;0.10;;;;;;;17.74;nan;100561.75;5038962;28;20581;-82
2023/07/16 05:19:50;;;;;;;0.10;0.10;;;;;;;17.80;nan;100566.28;5031422;28;20045;-82
2023/07/16 05:22:15;;;;;;;;;;;;;;;17.89;nan;100575.81;5073396;23;20135;-83
2023/07/16 05:24:40;;;;;;;0.10;0.10;;;;;;;17.92;nan;100572.75;5055545;28;19924;-82
2023/07/16 05:27:06;;;;;;;0.10;0.10;;;;;;;18.00;nan;100567.25;5048403;28;20041;-83
2023/07/16 05:29:35;;;;;;;0.10;0.10;;;;;;;18.02;nan;100570.56;5044189;28;20037;-81
2023/07/16 05:32:00;;;;;;;0.10;0.10;;;;;;;18.10;nan;100574.06;5036229;28;20038;-81
2023/07/16 05:34:26;;;;;;;0.10;0.10;;;;;;;18.17;nan;100582.97;5021801;28;20049;-82
2023/07/16 05:36:54;;;;;;;0.10;0.10;;;;;;;18.26;nan;100581.75;5027021;28;20033;-82
2023/07/16 05:39:22;;;;;;;0.10;0.10;;;;;;;18.32;nan;100578.25;5036439;28;20038;-80
2023/07/16 05:41:48;;;;;;;0.10;0.10;;;;;;;18.40;nan;100580.78;5032271;28;20032;-81
2023/07/16 05:44:14;;;;;;;0.03;0.03;;;;;;;18.54;nan;100591.50;5018640;28;20049;-84
2023/07/16 05:46:40;;;;;;;;;;;;;;;18.65;nan;100585.56;5024915;28;20050;-81
2023/07/16 05:49:05;;;;;;;;;;;;;;;18.77;nan;100585.81;5022546;28;19970;-81
2023/07/16 05:51:31;;;;;;;;;;;;;;;18.80;nan;100594.25;5030208;28;19917;-81
2023/07/16 05:53:57;;;;;;;;;;;;;;;19.05;nan;100591.00;5034421;28;19917;-82
2023/07/16 05:56:22;;;;;;;;;;;;;;;19.36;nan;100586.84;5026601;28;19944;-81
2023/07/16 05:58:47;;;;;;;0.10;0.10;;;;;;;19.57;nan;100591.97;5016665;28;19918;-82
2023/07/16 06:01:13;;;;;;;0.10;0.10;;;;;;;19.89;nan;100589.44;5026820;28;20061;-82
2023/07/16 06:03:41;;;;;;;0.10;0.10;;;;;;;20.19;nan;100597.81;5033685;28;20033;-83
2023/07/16 06:06:09;;;;;;;0.10;0.10;;;;;;;20.56;nan;100585.44;5021008;28;20433;-82
2023/07/16 06:08:37;;;;;;;0.10;0.10;;;;;;;20.77;nan;100588.81;5025983;28;20128;-82
2023/07/16 06:11:03;;;;;;;0.00;0.00;;;;;;;20.81;nan;100592.72;5017475;28;20463;-83
2023/07/16 06:13:30;;;;;;;0.10;0.10;;;;;;;21.05;nan;100595.66;5029574;28;20049;-83
2023/07/16 06:15:55;;;;;;;0.10;0.10;;;;;;;21.20;nan;100604.19;5013706;28;20038;-83
2023/07/16 06:18:24;;;;;;;0.10;0.10;;;;;;;20.95;nan;100598.81;5026890;28;20530;-81
2023/07/16 06:20:51;;;;;;;0.10;0.10;;;;;;;20.91;nan;100592.25;5023711;28;20037;-82
2023/07/16 06:23:23;;;;;;;0.00;0.00;;;;;;;20.82;nan;100598.91;5027924;28;20042;-81
2023/07/16 06:26:01;;;;;;;0.10;0.10;;;;;;;20.78;nan;100601.19;5013022;28;20121;-82
2023/07/16 06:28:32;;;;;;;0.10;0.10;;;;;;;20.64;nan;100600.50;5025804;28;20065;-82
2023/07/16 06:30:58;;;;;;;0.00;0.00;;;;;;;21.04;nan;100602.06;5029556;28;20412;-80
2023/07/16 06:33:28;;;;;;;0.00;0.00;;;;;;;21.07;nan;100612.38;5023588;28;20037;-81
2023/07/16 06:35:56;;;;;;;0.00;0.00;;;;;;;21.01;nan;100608.69;5024734;28;20097;-83
2023/07/16 06:38:21;;;;;;;0.00;0.00;;;;;;;21.24;nan;100608.09;5030653;28;20072;-83
2023/07/16 06:40:50;;;;;;;0.10;0.10;;;;;;;21.42;nan;100618.91;5027282;28;20038;-84
2023/07/16 06:43:16;;;;;;;0.03;0.03;;;;;;;21.49;nan;100616.16;5033406;28;20087;-82
2023/07/16 06:45:42;;;;;;;0.00;0.00;;;;;;;21.29;nan;100607.44;5018920;28;20121;-83
2023/07/16 06:48:08;;;;;;;0.00;0.00;;;;;;;21.68;nan;100608.94;5019003;28;20072;-83
2023/07/16 06:50:40;;;;;;;0.10;0.10;;;;;;;21.70;nan;100616.81;5007386;28;20034;-82
2023/07/16 06:53:05;;;;;;;;;;;;;;;21.81;nan;100611.50;5022414;28;20487;-82
2023/07/16 06:55:31;;;;;;;0.10;0.10;;;;;;;21.92;nan;100607.22;5023134;28;19924;-82
2023/07/16 06:58:05;;;;;;;0.00;0.00;;;;;;;22.12;nan;100617.78;5006975;28;20120;-83
2023/07/16 07:00:32;;;;;;;0.00;0.00;;;;;;;22.54;nan;100619.75;5016648;28;20041;-82
2023/07/16 07:02:58;;;;;;;0.10;0.10;;;;;;;22.44;nan;100620.31;5022216;28;20041;-82
2023/07/16 07:05:26;;;;;;;0.00;0.00;;;;;;;22.33;nan;100612.97;5015680;28;20045;-82
2023/07/16 07:07:52;;;;;;;0.10;0.10;;;;;;;22.14;nan;100612.97;5014579;28;20049;-83
2023/07/16 07:10:18;;;;;;;0.00;0.00;;;;;;;22.13;nan;100608.66;5004900;28;20096;-82
2023/07/16 07:12:47;;;;;;;0.10;0.10;;;;;;;21.80;nan;100619.78;5031247;28;20033;-83
2023/07/16 07:15:12;;;;;;;0.00;0.00;;;;;;;21.77;nan;100618.38;5029117;28;20041;-83
2023/07/16 07:17:39;;;;;;;0.10;0.10;;;;;;;21.71;nan;100621.94;5021424;28;20518;-83
2023/07/16 07:20:06;;;;;;;0.10;0.10;;;;;;;21.79;nan;100632.44;5020585;28;20033;-84
2023/07/16 07:22:34;;;;;;;0.00;0.00;;;;;;;22.09;nan;100620.09;5035119;28;20033;-83
2023/07/16 07:25:03;;;;;;;0.00;0.00;;;;;;;22.22;nan;100625.38;5034319;28;20046;-83
2023/07/16 07:27:34;;;;;;;0.10;0.10;;;;;;;22.24;nan;100621.41;5041012;28;20041;-83
2023/07/16 07:30:00;;;;;;;0.10;0.10;;;;;;;22.35;nan;100627.06;5019326;28;20046;-83
2023/07/16 07:32:26;;;;;;;0.00;0.00;;;;;;;22.79;nan;100630.41;5022165;28;20038;-81
2023/07/16 07:34:51;;;;;;;0.00;0.00;;;;;;;22.89;nan;100620.69;5016468;28;20041;-81
2023/07/16 07:37:17;;;;;;;0.10;0.10;;;;;;;22.87;nan;100617.41;5022502;28;20041;-80
2023/07/16 07:39:43;;;;;;;0.00;0.00;;;;;;;22.71;nan;100615.34;5035023;28;20087;-81
2023/07/16 07:42:09;;;;;;;0.00;0.00;;;;;;;22.61;nan;100615.91;5025491;28;20037;-81
2023/07/16 07:45:12;;;;;;;0.00;0.00;;;;;;;22.75;nan;100621.94;5024257;28;20038;-81
2023/07/16 07:47:38;;;;;;;0.00;0.00;;;;;;;22.97;nan;100619.53;5015694;28;20091;-82
2023/07/16 07:50:07;;;;;;;0.00;0.00;;;;;;;23.23;nan;100628.28;5022001;28;20638;-80
2023/07/16 07:52:32;;;;;;;0.00;0.00;;;;;;;23.50;nan;100625.94;5029975;28;20060;-82
2023/07/16 07:54:58;;;;;;;0.10;0.10;;;;;;;23.81;nan;100624.78;5026724;28;20041;-81
2023/07/16 07:57:23;;;;;;;0.00;0.00;;;;;;;24.47;nan;100621.81;5023510;28;20033;-80
2023/07/16 07:59:51;;;;;;;0.10;0.10;;;;;;;24.45;nan;100626.59;5025081;28;20490;-82
2023/07/16 08:02:18;;;;;;;0.00;0.00;;;;;;;24.17;nan;100625.53;5017881;28;20042;-81
2023/07/16 08:04:43;;;;;;;0.00;0.00;;;;;;;24.17;nan;100630.94;5022470;28;20034;-81
2023/07/16 08:07:09;;;;;;;0.00;0.00;;;;;;;24.07;nan;100634.22;5020795;28;20519;-83
2023/07/16 08:09:37;;;;;;;0.00;0.00;;;;;;;24.19;nan;100626.09;5024161;28;20425;-80
2023/07/16 08:12:02;;;;;;;;;;;;;;;24.05;nan;100630.97;5028399;28;20060;-81
2023/07/16 08:14:28;;;;;;;0.00;0.00;;;;;;;24.43;nan;100629.56;5031809;28;20374;-81
2023/07/16 08:16:54;;;;;;;0.00;0.00;;;;;;;24.72;nan;100627.69;5012962;28;20498;-81
2023/07/16 08:19:19;;;;;;;0.00;0.00;;;;;;;24.53;nan;100628.97;5033365;28;20044;-80
2023/07/16 08:21:44;;;;;;;0.00;0.00;;;;;;;24.25;nan;100633.25;5026981;28;20383;-80
2023/07/16 08:24:09;;;;;;;0.00;0.00;;;;;;;24.02;nan;100631.44;5032009;28;20277;-81
2023/07/16 08:26:35;;;;;;;0.00;0.00;;;;;;;24.20;nan;100630.47;5024257;28;20284;-80
2023/07/16 08:29:01;;;;;;;0.00;0.00;;;;;;;23.99;nan;100642.72;5031359;28;20283;-80
2023/07/16 08:31:26;;;;;;;0.00;0.00;;;;;;;23.83;nan;100638.03;5032221;28;20394;-80
2023/07/16 08:33:51;;;;;;;0.10;0.10;;;;;;;23.80;nan;100636.63;5024113;28;20120;-80
2023/07/16 08:36:17;;;;;;;0.00;0.00;;;;;;;24.09;nan;100631.31;5024923;28;20032;-80
2023/07/16 08:38:42;;;;;;;0.00;0.00;;;;;;;23.99;nan;100637.31;5029957;28;20330;-80
2023/07/16 08:41:07;;;;;;;0.10;0.10;;;;;;;23.88;nan;100647.09;5024779;28;20299;-81
2023/07/16 08:43:33;;;;;;;0.00;0.00;;;;;;;23.65;nan;100638.97;5024251;28;20100;-81
2023/07/16 08:46:01;;;;;;;0.00;0.00;;;;;;;23.62;nan;100639.44;5020895;28;20061;-82
2023/07/16 08:48:28;;;;;;;0.00;0.00;;;;;;;23.65;nan;100641.69;5031358;28;20056;-82
2023/07/16 08:50:57;;;;;;;0.03;0.03;;;;;;;23.75;nan;100647.34;5023926;28;20080;-82
2023/07/16 08:53:22;;;;;;;0.00;0.00;;;;;;;23.77;nan;100645.22;5015456;28;20105;-81
2023/07/16 08:55:47;;;;;;;0.10;0.10;;;;;;;23.90;nan;100636.03;5020442;28;20080;-83
2023/07/16 08:58:16;;;;;;;0.00;0.00;;;;;;;23.90;nan;100638.75;5018300;28;20041;-81
2023/07/16 09:00:43;;;;;;;0.00;0.00;;;;;;;23.89;nan;100637.09;5029416;28;20052;-82
2023/07/16 09:03:12;;;;;;;0.00;0.00;;;;;;;23.95;nan;100644.25;5032299;28;20130;-81
2023/07/16 09:05:38;;;;;;;0.00;0.00;;;;;;;23.81;nan;100645.56;5022511;28;20058;-81
2023/07/16 09:08:03;;;;;;;0.10;0.10;;;;;;;23.49;nan;100652.09;5014346;28;20041;-82
2023/07/16 09:10:29;;;;;;;0.00;0.00;;;;;;;23.26;nan;100644.00;5033258;28;20033;-79
2023/07/16 09:12:58;;;;;;;0.00;0.00;;;;;;;23.35;nan;100645.28;5022591;28;20507;-79
2023/07/16 09:15:23;;;;;;;0.00;0.00;;;;;;;23.49;nan;100644.00;5027055;28;20240;-79
2023/07/16 09:17:49;;;;;;;0.00;0.00;;;;;;;23.80;nan;100652.84;5009263;28;20037;-79
2023/07/16 09:20:16;;;;;;;0.00;0.00;;;;;;;23.80;nan;100643.94;5014729;28;20085;-79
2023/07/16 09:22:41;;;;;;;0.00;0.00;;;;;;;23.70;nan;100642.59;5034333;28;20056;-79
2023/07/16 09:25:10;;;;;;;0.00;0.00;;;;;;;24.09;nan;100642.91;5030899;28;20041;-79
2023/07/16 09:27:35;;;;;;;0.00;0.00;;;;;;;24.70;nan;100645.22;5029354;28;20938;-79
2023/07/16 09:30:02;;;;;;;0.00;0.00;;;;;;;24.95;nan;100636.72;5021000;28;20037;-79
2023/07/16 09:32:39;;;;;;;0.00;0.00;;;;;;;26.43;nan;100638.88;5017728;28;20037;-79
2023/07/16 09:35:17;;;;;;;0.00;0.00;;;;;;;27.56;nan;100636.38;5002794;28;20064;-78
2023/07/16 09:37:43;;;;;;;0.00;0.00;;;;;;;28.32;nan;100635.94;5006382;28;20320;-80
2023/07/16 09:40:11;;;;;;;0.00;0.00;;;;;;;28.72;nan;100637.94;5002750;28;20049;-79
2023/07/16 09:42:43;;;;;;;0.00;0.00;;;;;;;28.50;nan;100630.00;5010368;28;20034;-81
2023/07/16 09:45:17;;;;;;;0.00;0.00;;;;;;;28.36;nan;100637.84;5017150;28;20476;-81
2023/07/16 09:47:43;;;;;;;0.00;0.00;;;;;;;28.08;nan;100636.38;5030145;28;20037;-81
2023/07/16 09:50:09;;;;;;;0.00;0.00;;;;;;;28.09;nan;100642.63;5033402;28;20040;-82
2023/07/16 09:52:34;;;;;;;0.00;0.00;;;;;;;28.91;nan;100638.25;5019565;28;20060;-84
2023/07/16 09:55:04;;;;;;;0.00;0.00;;;;;;;29.53;nan;100640.94;5023960;28;20064;-81
2023/07/16 09:57:39;;;;;;;0.00;0.00;;;;;;;29.55;nan;100646.94;5022683;28;20030;-82
2023/07/16 10:00:12;;;;;;;0.00;0.00;;;;;;;28.97;nan;100641.78;5019072;28;20037;-81
2023/07/16 10:02:38;;;;;;;0.00;0.00;;;;;;;29.61;nan;100635.75;5008820;28;20029;-80
2023/07/16 10:05:14;;;;;;;0.00;0.00;;;;;;;30.34;nan;100639.88;5009131;28;20414;-82
2023/07/16 10:07:40;;;;;;;0.00;0.00;;;;;;;30.62;nan;100637.53;5011150;28;20030;-82
2023/07/16 10:10:09;;;;;;;0.00;0.00;;;;;;;30.99;nan;100634.28;5010498;28;20049;-82
2023/07/16 10:12:35;;;;;;;0.00;0.00;;;;;;;30.65;nan;100626.03;5010672;28;20041;-82
2023/07/16 10:15:04;;;;;;;0.00;0.00;;;;;;;30.97;nan;100635.66;5010594;28;20042;-82
2023/07/16 10:17:30;;;;;;;0.00;0.00;;;;;;;31.55;nan;100638.41;5016091;28;20033;-82
2023/07/16 10:20:03;;;;;;;0.00;0.00;;;;;;;32.75;nan;100637.44;5021728;28;20409;-82
2023/07/16 10:22:37;;;;;;;0.00;0.00;;;;;;;32.93;nan;100631.13;5017430;28;20403;-82
2023/07/16 10:25:22;;;;;;;0.00;0.00;;;;;;;32.92;nan;100635.00;5010428;28;20415;-80
2023/07/16 10:27:51;;;;;;;0.00;0.00;;;;;;;32.34;nan;100627.88;5018758;28;20037;-82
2023/07/16 10:30:17;;;;;;;0.00;0.00;;;;;;;32.57;nan;100630.91;5026232;28;20064;-82
2023/07/16 10:32:43;;;;;;;0.00;0.00;;;;;;;32.89;nan;100627.34;5015098;28;20549;-81
2023/07/16 10:35:12;;;;;;;0.00;0.00;;;;;;;33.35;nan;100629.34;5016644;28;20121;-81
2023/07/16 10:37:38;;;;;;;0.00;0.00;;;;;;;33.67;nan;100618.63;5021412;28;20105;-81
2023/07/16 10:40:04;;;;;;;;;;;;;;;32.81;nan;100619.03;5036773;28;20487;-81
2023/07/16 10:42:30;;;;;;;0.00;0.00;;;;;;;31.49;nan;100623.19;5037636;28;19913;-80
2023/07/16 10:44:59;;;;;;;0.00;0.00;;;;;;;32.00;nan;100627.28;5031223;28;20034;-81
2023/07/16 10:47:32;;;;;;;0.00;0.00;;;;;;;32.20;nan;100632.47;5012543;28;20113;-81
2023/07/16 10:49:57;;;;;;;0.00;0.00;;;;;;;31.32;nan;100618.97;5018827;28;20057;-80
2023/07/16 10:52:23;;;;;;;0.00;0.00;;;;;;;30.32;nan;100623.00;5029692;28;20480;-82
2023/07/16 10:54:55;;;;;;;0.00;0.00;;;;;;;31.43;nan;100635.28;5025525;28;20407;-80
2023/07/16 10:57:29;;;;;;;;;;;;;;;31.30;nan;100629.34;5025038;28;20038;-80
2023/07/16 10:59:55;;;;;;;;;;;;;;;31.08;nan;100624.38;5023987;28;19940;-81
2023/07/16 11:02:22;;;;;;;0.00;0.00;;;;;;;31.87;nan;100617.81;5010513;28;19917;-82
2023/07/16 11:04:48;;;;;;;;;;;;;;;33.04;nan;100620.03;5018211;28;20141;-81
2023/07/16 11:07:14;;;;;;;0.00;0.00;;;;;;;33.14;nan;100626.16;5018006;28;19922;-81
2023/07/16 11:09:51;;;;;;;0.00;0.00;;;;;;;33.71;nan;100625.16;5021863;28;20427;-81
2023/07/16 11:12:26;;;;;;;0.00;0.00;;;;;;;34.15;nan;100612.72;5013539;28;20145;-80
2023/07/16 11:14:53;;;;;;;0.00;0.00;;;;;;;35.06;nan;100615.22;5024332;28;20372;-80
2023/07/16 11:17:19;;;;;;;0.00;0.00;;;;;;;35.84;nan;100612.03;5018635;28;20068;-80
2023/07/16 11:19:46;;;;;;;0.00;0.00;;;;;;;36.06;nan;100613.03;5018243;28;20061;-80
2023/07/16 11:22:12;;;;;;;0.00;0.00;;;;;;;36.40;nan;100615.06;5007904;28;20075;-82
2023/07/16 11:24:42;;;;;;;0.00;0.00;;;;;;;36.50;nan;100624.94;5023658;28;20033;-81
2023/07/16 11:27:14;;;;;;;;;;;;;;;35.37;nan;100610.88;5019019;28;20181;-82
2023/07/16 11:29:41;;;;;;;;;;;;;;;33.30;nan;100604.78;5019696;28;19914;-81
2023/07/16 11:32:07;;;;;;;0.00;0.00;;;;;;;31.92;nan;100602.19;5029118;28;19913;-80
2023/07/16 11:34:32;;;;;;;0.00;0.00;;;;;;;31.82;nan;100602.31;5016070;28;20519;-83
2023/07/16 11:37:10;;;;;;;;;;;;;;;32.79;nan;100598.22;5014632;28;20030;-82
2023/07/16 11:39:36;;;;;;;;;;;;;;;33.35;nan;100606.63;5033779;28;19952;-82
2023/07/16 11:42:02;;;;;;;0.00;0.00;;;;;;;33.02;nan;100595.66;5010223;28;20548;-81
2023/07/16 11:44:33;;;;;;;0.00;0.00;;;;;;;33.58;nan;100594.66;5020307;28;20034;-81
2023/07/16 11:46:58;;;;;;;;;;;;;;;33.36;nan;100600.81;5021130;28;20030;-81
2023/07/16 11:49:23;;;;;;;;;;;;;;;33.32;nan;100594.28;5024911;28;19920;-80
2023/07/16 11:51:49;;;;;;;0.00;0.00;;;;;;;32.63;nan;100596.84;5034925;28;19914;-82